Overview Statistics Trail Chart Weather Telemetry Raw packets
 

This is the latest recevied weather packets stored in our database for station/object R2AJV-13. If no packets are shown the sender has not sent any weather packets the latest 10 day(s).

<< 10 11 12 13 14 15 16 >>
Time Temp. Humidity Pressure Rain* Wind** Luminosity Snow
1788253262 23.33° C 71% 1001.3 hPa 0 mm - - -
1788252357 23.33° C 69% 1001.4 hPa 0 mm - - -
1788251447 23.33° C 68% 1001.5 hPa 0 mm - - -
1788250536 22.78° C 71% 1001.5 hPa 0 mm - - -
1788249625 22.78° C 72% 1001.6 hPa 0 mm - - -
1788248720 22.22° C 72% 1001.6 hPa 0 mm - - -
1788247870 22.78° C 72% 1001.6 hPa 0 mm - - -
1788246959 21.11° C 78% 1001.6 hPa 0 mm - - -
1788246049 21.11° C 77% 1001.6 hPa 0 mm - - -
1788245146 20.56° C 78% 1001.8 hPa 0 mm - - -
1788244234 20.56° C 77% 1001.8 hPa 0 mm - - -
1788243323 20° C 80% 1001.8 hPa 0 mm - - -
1788242473 19.44° C 82% 1001.7 hPa 0 mm - - -
1788241562 18.89° C 84% 1001.8 hPa 0 mm - - -
1788240657 18.33° C 85% 1001.7 hPa 0 mm - - -
1788239745 17.22° C 88% 1001.7 hPa 0 mm - - -
1788238863 16.67° C 90% 1001.8 hPa 0 mm - - -
1788237958 15.56° C 95% 1001.8 hPa 0 mm - - -
1788237047 14.44° C 99% 1001.8 hPa 0 mm - - -
1788236136 13.89° C 99% 1001.8 hPa 0 mm - - -
1788235226 13.89° C 99% 1001.8 hPa 0 mm - - -
1788234321 12.78° C 99% 1002 hPa 0 mm - - -
1788233470 12.78° C 99% 1001.8 hPa 0 mm - - -
1788183057 21.67° C 73% 1003 hPa 0 mm - - -
1788182146 21.67° C 72% 1003.1 hPa 0 mm - - -

* Rain latest hour (hover to see other rain measurements)
** Current wind speed in m/s (hover to see current wind gust speed)